createdAt,value
2023-05-19T00:00:20.247Z,0.71
2023-05-19T00:01:20.302Z,0.70
2023-05-19T00:02:20.370Z,0.70
2023-05-19T00:03:20.461Z,0.69
2023-05-19T00:04:20.467Z,0.69
2023-05-19T00:05:20.560Z,0.70
2023-05-19T00:06:20.637Z,0.71
2023-05-19T00:07:20.603Z,0.69
2023-05-19T00:08:20.643Z,0.70
2023-05-19T00:09:20.706Z,0.70
2023-05-19T00:10:20.776Z,0.70
2023-05-19T00:11:20.784Z,0.72
2023-05-19T00:12:20.865Z,0.69
2023-05-19T00:13:20.962Z,0.69
2023-05-19T00:14:20.997Z,0.70
2023-05-19T00:15:21.058Z,0.68
2023-05-19T00:16:21.134Z,0.69
2023-05-19T00:17:21.096Z,0.70
2023-05-19T00:18:21.193Z,0.70
2023-05-19T00:19:21.445Z,0.70
2023-05-19T00:20:21.236Z,0.68
2023-05-19T00:21:21.316Z,0.69
2023-05-19T00:22:21.368Z,0.69
2023-05-19T00:23:21.433Z,0.68
2023-05-19T00:24:21.473Z,0.69
2023-05-19T00:25:21.545Z,0.68
2023-05-19T00:26:21.561Z,0.69
2023-05-19T00:27:21.664Z,0.69
2023-05-19T00:28:21.693Z,0.68
2023-05-19T00:29:21.769Z,0.69
2023-05-19T00:30:21.823Z,0.68
2023-05-19T00:31:21.871Z,0.68
2023-05-19T00:32:21.977Z,0.68
2023-05-19T00:33:21.954Z,0.69
2023-05-19T00:34:22.015Z,0.68
2023-05-19T00:35:22.057Z,0.67
2023-05-19T00:36:22.128Z,0.69
2023-05-19T00:37:22.169Z,0.70
2023-05-19T00:38:22.189Z,0.68
2023-05-19T00:39:22.286Z,0.67
2023-05-19T00:40:22.312Z,0.69
2023-05-19T00:41:22.350Z,0.67
2023-05-19T00:42:22.476Z,0.69
2023-05-19T00:43:22.516Z,0.67
2023-05-19T00:44:22.541Z,0.69
2023-05-19T00:45:22.658Z,0.70
2023-05-19T00:46:22.699Z,0.68
2023-05-19T00:47:22.746Z,0.70
2023-05-19T00:48:22.790Z,0.67
2023-05-19T00:49:22.832Z,0.67
2023-05-19T00:50:22.892Z,0.68
2023-05-19T00:51:22.954Z,0.68
2023-05-19T00:52:23.014Z,0.66
2023-05-19T00:53:23.056Z,0.68
2023-05-19T00:54:23.120Z,0.67
2023-05-19T00:55:23.186Z,0.68
2023-05-19T00:56:23.250Z,0.69
2023-05-19T00:57:23.288Z,0.67
2023-05-19T00:58:23.315Z,0.68
2023-05-19T00:59:23.407Z,0.67
2023-05-19T01:00:23.471Z,0.67
2023-05-19T01:01:23.571Z,0.68
2023-05-19T01:02:23.571Z,0.68
2023-05-19T01:03:23.706Z,0.67
2023-05-19T01:04:23.635Z,0.66
2023-05-19T01:05:23.727Z,0.67
2023-05-19T01:06:23.784Z,0.67
2023-05-19T01:07:23.819Z,0.66
2023-05-19T01:08:23.839Z,0.67
2023-05-19T01:09:23.944Z,0.66
2023-05-19T01:10:24.027Z,0.67
2023-05-19T01:11:24.041Z,0.67
2023-05-19T01:12:24.142Z,0.66
2023-05-19T01:13:24.112Z,0.67
2023-05-19T01:14:24.228Z,0.67
2023-05-19T01:15:24.230Z,0.67
2023-05-19T01:16:24.337Z,0.66
2023-05-19T01:17:24.373Z,0.67
2023-05-19T01:18:24.393Z,0.66
2023-05-19T01:19:24.546Z,0.67
2023-05-19T01:20:24.512Z,0.66
2023-05-19T01:21:24.584Z,0.67
2023-05-19T01:22:24.634Z,0.66
2023-05-19T01:23:24.701Z,0.66
2023-05-19T01:24:24.731Z,0.67
2023-05-19T01:25:24.749Z,0.66
2023-05-19T01:26:24.815Z,0.66
2023-05-19T01:27:24.858Z,0.66
2023-05-19T01:28:24.959Z,0.66
2023-05-19T01:29:24.983Z,0.67
2023-05-19T01:30:25.005Z,0.65
2023-05-19T01:31:25.136Z,0.67
2023-05-19T01:32:25.141Z,0.66
2023-05-19T01:33:25.331Z,0.66
2023-05-19T01:34:25.294Z,0.68
2023-05-19T01:35:25.289Z,0.67
2023-05-19T01:36:25.365Z,0.67
2023-05-19T01:37:25.410Z,0.67
2023-05-19T01:38:25.539Z,0.67
2023-05-19T01:39:25.491Z,0.66
2023-05-19T01:40:25.570Z,0.67
2023-05-19T01:41:25.643Z,0.64
2023-05-19T01:42:25.686Z,0.67
2023-05-19T01:43:25.757Z,0.66
2023-05-19T01:44:25.806Z,0.65
2023-05-19T01:45:25.861Z,0.65
2023-05-19T01:46:26.042Z,0.66
2023-05-19T01:47:25.991Z,0.65
2023-05-19T01:48:26.042Z,0.66
2023-05-19T01:49:26.057Z,0.67
2023-05-19T01:50:26.124Z,0.66
2023-05-19T01:51:26.167Z,0.65
2023-05-19T01:52:26.230Z,0.66
2023-05-19T01:53:26.282Z,0.64
2023-05-19T01:54:26.396Z,0.64
2023-05-19T01:55:26.386Z,0.65
2023-05-19T01:56:26.423Z,0.67
2023-05-19T01:57:26.520Z,0.67
2023-05-19T01:58:26.525Z,0.66
2023-05-19T01:59:26.638Z,0.68
2023-05-19T02:00:26.718Z,0.64
2023-05-19T02:01:26.729Z,0.65
2023-05-19T02:02:26.846Z,0.66
2023-05-19T02:03:26.809Z,0.64
2023-05-19T02:04:26.925Z,0.66
2023-05-19T02:05:26.941Z,0.66
2023-05-19T02:06:26.972Z,0.64
2023-05-19T02:07:27.049Z,0.69
2023-05-19T02:08:27.127Z,0.65
2023-05-19T02:09:27.161Z,0.66
2023-05-19T02:10:27.240Z,0.65
2023-05-19T02:11:27.286Z,0.65
2023-05-19T02:12:27.346Z,0.67
2023-05-19T02:13:27.392Z,0.65
2023-05-19T02:14:27.468Z,0.66
2023-05-19T02:15:27.544Z,0.66
2023-05-19T02:16:27.642Z,0.65
2023-05-19T02:17:27.670Z,0.66
2023-05-19T02:18:27.661Z,0.64
2023-05-19T02:19:27.831Z,0.65
2023-05-19T02:20:27.800Z,0.64
2023-05-19T02:21:27.859Z,0.66
2023-05-19T02:22:27.921Z,0.65
2023-05-19T02:23:27.932Z,0.66
2023-05-19T02:24:28.025Z,0.67
2023-05-19T02:25:28.086Z,0.66
2023-05-19T02:26:28.169Z,0.64
2023-05-19T02:27:28.199Z,0.64
2023-05-19T02:28:28.278Z,0.65
2023-05-19T02:29:28.346Z,0.65
2023-05-19T02:30:28.456Z,0.65
2023-05-19T02:31:28.568Z,0.64
2023-05-19T02:32:28.532Z,0.65
2023-05-19T02:33:28.580Z,0.66
2023-05-19T02:34:28.615Z,0.66
2023-05-19T02:35:28.725Z,0.64
2023-05-19T02:36:28.746Z,0.66
2023-05-19T02:37:28.849Z,0.63
2023-05-19T02:38:28.857Z,0.65
2023-05-19T02:39:28.955Z,0.64
2023-05-19T02:40:29.050Z,0.65
2023-05-19T02:41:29.090Z,0.64
2023-05-19T02:42:29.074Z,0.63
2023-05-19T02:43:29.197Z,0.64
2023-05-19T02:44:29.274Z,0.63
2023-05-19T02:45:29.311Z,0.65
2023-05-19T02:46:29.366Z,0.64
2023-05-19T02:47:29.461Z,0.66
2023-05-19T02:48:29.492Z,0.64
2023-05-19T02:49:29.566Z,0.63
2023-05-19T02:50:29.638Z,0.64
2023-05-19T02:51:29.628Z,0.65
2023-05-19T02:52:29.706Z,0.65
2023-05-19T02:53:29.761Z,0.63
2023-05-19T02:54:29.826Z,0.63
2023-05-19T02:55:29.885Z,0.64
2023-05-19T02:56:29.953Z,0.64
2023-05-19T02:57:29.988Z,0.64
2023-05-19T02:58:30.078Z,0.63
2023-05-19T02:59:30.125Z,0.63
2023-05-19T03:00:30.341Z,0.63
2023-05-19T03:01:30.286Z,0.64
2023-05-19T03:02:30.388Z,0.63
2023-05-19T03:03:30.464Z,0.65
2023-05-19T03:04:30.458Z,0.63
2023-05-19T03:05:30.477Z,0.63
2023-05-19T03:06:30.562Z,0.64
2023-05-19T03:07:30.623Z,0.64
2023-05-19T03:08:30.705Z,0.63
2023-05-19T03:09:30.775Z,0.65
2023-05-19T03:10:31.075Z,0.64
2023-05-19T03:11:30.894Z,0.64
2023-05-19T03:12:30.977Z,0.64
2023-05-19T03:13:31.002Z,0.64
2023-05-19T03:14:31.104Z,0.64
2023-05-19T03:15:31.095Z,0.64
2023-05-19T03:16:31.187Z,0.64
2023-05-19T03:17:31.385Z,0.65
2023-05-19T03:18:31.329Z,0.63
2023-05-19T03:19:31.381Z,0.64
2023-05-19T03:20:31.633Z,0.64
2023-05-19T03:21:31.545Z,0.63
2023-05-19T03:22:31.553Z,0.62
2023-05-19T03:23:31.690Z,0.63
2023-05-19T03:24:31.771Z,0.63
2023-05-19T03:25:31.721Z,0.62
2023-05-19T03:26:31.797Z,0.63
2023-05-19T03:27:31.913Z,0.64
2023-05-19T03:28:31.967Z,0.63
2023-05-19T03:29:32.023Z,0.63
2023-05-19T03:30:32.198Z,0.64
2023-05-19T03:31:32.164Z,0.65
2023-05-19T03:32:32.222Z,0.63
2023-05-19T03:33:32.338Z,0.63
2023-05-19T03:34:32.298Z,0.61
2023-05-19T03:35:32.355Z,0.63
2023-05-19T03:36:32.458Z,0.62
2023-05-19T03:37:32.440Z,0.62
2023-05-19T03:38:32.611Z,0.62
2023-05-19T03:39:32.612Z,0.62
2023-05-19T03:40:32.925Z,0.62
2023-05-19T03:41:32.732Z,0.62
2023-05-19T03:42:32.784Z,0.63
2023-05-19T03:43:32.847Z,0.63
2023-05-19T03:44:32.966Z,0.65
2023-05-19T03:45:33.013Z,0.61
2023-05-19T03:46:33.100Z,0.62
2023-05-19T03:47:33.148Z,0.61
2023-05-19T03:48:33.185Z,0.64
2023-05-19T03:49:33.250Z,0.61
2023-05-19T03:50:33.445Z,0.63
2023-05-19T03:51:33.521Z,0.63
2023-05-19T03:52:33.418Z,0.63
2023-05-19T03:53:33.460Z,0.62
2023-05-19T03:54:33.561Z,0.63
2023-05-19T03:55:33.646Z,0.62
2023-05-19T03:56:33.668Z,0.63
2023-05-19T03:57:33.742Z,0.64
2023-05-19T03:58:33.845Z,0.61
2023-05-19T03:59:33.879Z,0.61
2023-05-19T04:00:34.284Z,0.62
2023-05-19T04:01:33.934Z,0.62
2023-05-19T04:02:34.102Z,0.62
2023-05-19T04:03:34.126Z,0.59
2023-05-19T04:04:34.271Z,0.56
2023-05-19T04:05:34.216Z,0.56
2023-05-19T04:06:34.263Z,0.50
2023-05-19T04:07:34.321Z,0.51
2023-05-19T04:08:34.393Z,0.50
2023-05-19T04:09:34.564Z,0.50
2023-05-19T04:10:34.626Z,0.50
2023-05-19T04:11:34.560Z,0.51
2023-05-19T04:12:34.608Z,0.50
2023-05-19T04:13:34.621Z,0.50
2023-05-19T04:14:34.636Z,0.51
2023-05-19T04:15:34.842Z,0.50
2023-05-19T04:16:34.814Z,0.51
2023-05-19T04:17:34.783Z,0.50
2023-05-19T04:18:34.856Z,0.51
2023-05-19T04:19:34.858Z,0.50
2023-05-19T04:20:34.958Z,0.51
2023-05-19T04:21:35.062Z,0.51
2023-05-19T04:22:35.043Z,0.50
2023-05-19T04:23:35.098Z,0.51
2023-05-19T04:24:35.181Z,0.50
2023-05-19T04:25:35.203Z,0.50
2023-05-19T04:26:35.281Z,0.50
2023-05-19T04:27:35.304Z,0.50
2023-05-19T04:28:35.384Z,0.50
2023-05-19T04:29:35.420Z,0.52
2023-05-19T04:30:35.600Z,0.51
2023-05-19T04:31:35.615Z,0.52
2023-05-19T04:32:35.554Z,0.56
2023-05-19T04:33:35.659Z,0.62
2023-05-19T04:34:35.572Z,0.64
2023-05-19T04:35:35.593Z,0.67
2023-05-19T04:36:35.696Z,0.68
2023-05-19T04:37:35.701Z,0.69
2023-05-19T04:38:35.784Z,0.69
2023-05-19T04:39:35.793Z,0.68
2023-05-19T04:40:35.938Z,0.71
2023-05-19T04:41:35.919Z,0.69
2023-05-19T04:42:35.940Z,0.71
2023-05-19T04:43:36.002Z,0.70
2023-05-19T04:44:36.029Z,0.72
2023-05-19T04:45:36.052Z,0.72
2023-05-19T04:46:36.196Z,0.73
2023-05-19T04:47:36.212Z,0.72
2023-05-19T04:48:36.269Z,0.74
2023-05-19T04:49:36.260Z,0.72
2023-05-19T04:50:36.318Z,0.72
2023-05-19T04:51:36.370Z,0.73
2023-05-19T04:52:36.399Z,0.75
2023-05-19T04:53:36.484Z,0.75
2023-05-19T04:54:36.501Z,0.75
2023-05-19T04:55:36.533Z,0.75
2023-05-19T04:56:36.701Z,0.77
2023-05-19T04:57:36.569Z,0.75
2023-05-19T04:58:39.597Z,0.75
2023-05-19T04:59:36.568Z,0.75
2023-05-19T05:00:36.630Z,0.75
2023-05-19T05:01:36.653Z,0.75
2023-05-19T05:02:36.704Z,0.76
2023-05-19T05:03:36.649Z,0.77
2023-05-19T05:04:36.597Z,0.78
2023-05-19T05:05:36.528Z,0.79
2023-05-19T05:06:36.534Z,0.78
2023-05-19T05:07:36.591Z,0.79
2023-05-19T05:08:36.538Z,0.79
2023-05-19T05:09:36.547Z,0.79
2023-05-19T05:10:36.538Z,0.78
2023-05-19T05:11:36.533Z,0.79
2023-05-19T05:12:36.532Z,0.79
2023-05-19T05:13:36.459Z,0.80
2023-05-19T05:14:36.479Z,0.81
2023-05-19T05:15:36.500Z,0.80
2023-05-19T05:16:36.511Z,0.80
2023-05-19T05:17:36.497Z,0.81
2023-05-19T05:18:36.648Z,0.82
2023-05-19T05:19:36.450Z,0.81
2023-05-19T05:20:36.484Z,0.81
2023-05-19T05:21:36.486Z,0.82
2023-05-19T05:22:36.428Z,0.83
2023-05-19T05:23:36.448Z,0.84
2023-05-19T05:24:36.427Z,0.86
2023-05-19T05:25:36.379Z,0.85
2023-05-19T05:26:36.422Z,0.83
2023-05-19T05:27:36.426Z,0.85
2023-05-19T05:28:36.479Z,0.84
2023-05-19T05:29:36.530Z,0.84
2023-05-19T05:30:36.580Z,0.84
2023-05-19T05:31:36.578Z,0.84
2023-05-19T05:32:36.791Z,0.85
2023-05-19T05:33:36.739Z,0.85
2023-05-19T05:34:36.685Z,0.86
2023-05-19T05:35:36.738Z,0.85
2023-05-19T05:36:36.734Z,0.84
2023-05-19T05:37:36.797Z,0.84
2023-05-19T05:38:36.810Z,0.86
2023-05-19T05:39:36.864Z,0.85
2023-05-19T05:40:36.885Z,0.85
2023-05-19T05:41:36.973Z,0.86
2023-05-19T05:42:36.979Z,0.87
2023-05-19T05:43:37.005Z,0.88
2023-05-19T05:44:37.047Z,0.87
2023-05-19T05:45:37.169Z,0.89
2023-05-19T05:46:37.211Z,0.87
2023-05-19T05:47:37.237Z,0.88
2023-05-19T05:48:37.207Z,0.88
2023-05-19T05:49:37.997Z,0.90
2023-05-19T05:50:37.282Z,0.86
2023-05-19T05:51:37.294Z,0.87
2023-05-19T05:52:37.317Z,0.87
2023-05-19T05:53:37.374Z,0.87
2023-05-19T05:54:37.438Z,0.87
2023-05-19T05:55:37.460Z,0.89
2023-05-19T05:56:37.556Z,0.90
2023-05-19T05:57:37.619Z,0.89
2023-05-19T05:58:37.619Z,0.89
2023-05-19T05:59:37.647Z,0.89
2023-05-19T06:00:37.724Z,0.90
2023-05-19T06:01:37.766Z,0.91
2023-05-19T06:02:37.981Z,0.88
2023-05-19T06:03:37.904Z,0.89
2023-05-19T06:04:37.890Z,0.89
2023-05-19T06:05:37.925Z,0.89
2023-05-19T06:06:37.938Z,0.89
2023-05-19T06:07:37.992Z,0.90
2023-05-19T06:08:38.044Z,0.89
2023-05-19T06:09:38.046Z,0.88
2023-05-19T06:10:38.053Z,0.92
2023-05-19T06:11:38.087Z,0.90
2023-05-19T06:12:38.165Z,0.91
2023-05-19T06:13:38.223Z,0.90
2023-05-19T06:14:38.259Z,0.91
2023-05-19T06:15:38.320Z,0.91
2023-05-19T06:16:38.464Z,0.91
2023-05-19T06:17:38.489Z,0.90
2023-05-19T06:18:38.535Z,0.90
2023-05-19T06:19:38.534Z,0.90
2023-05-19T06:20:38.593Z,0.91
2023-05-19T06:21:38.667Z,0.90
2023-05-19T06:22:38.729Z,0.88
2023-05-19T06:23:38.803Z,0.92
2023-05-19T06:24:39.553Z,0.95
2023-05-19T06:25:38.939Z,0.91
2023-05-19T06:26:38.963Z,0.92
2023-05-19T06:27:39.034Z,0.94
2023-05-19T06:28:39.095Z,0.91
2023-05-19T06:29:39.148Z,0.92
2023-05-19T06:30:39.223Z,0.90
2023-05-19T06:31:39.350Z,0.93
2023-05-19T06:32:39.324Z,0.91
2023-05-19T06:33:39.384Z,0.91
2023-05-19T06:34:39.441Z,0.92
2023-05-19T06:35:39.499Z,0.91
2023-05-19T06:36:39.592Z,0.93
2023-05-19T06:37:39.612Z,0.92
2023-05-19T06:38:39.721Z,0.92
2023-05-19T06:39:39.764Z,0.92
2023-05-19T06:40:39.823Z,0.92
2023-05-19T06:41:40.013Z,0.92
2023-05-19T06:42:39.909Z,0.93
2023-05-19T06:43:40.015Z,0.93
2023-05-19T06:44:40.026Z,0.91
2023-05-19T06:45:40.127Z,0.94
2023-05-19T06:46:40.230Z,0.94
2023-05-19T06:47:40.253Z,0.95
2023-05-19T06:48:40.307Z,0.93
2023-05-19T06:49:40.382Z,0.91
2023-05-19T06:50:40.383Z,0.93
2023-05-19T06:51:40.518Z,0.94
2023-05-19T06:52:40.499Z,0.94
2023-05-19T06:53:40.579Z,0.93
2023-05-19T06:54:40.631Z,0.95
2023-05-19T06:55:54.365Z,0.94
2023-05-19T06:56:41.691Z,0.94
2023-05-19T06:57:40.688Z,0.94
2023-05-19T06:58:40.678Z,0.94
2023-05-19T06:59:40.656Z,0.93
2023-05-19T07:00:40.696Z,0.94
2023-05-19T07:01:40.643Z,0.95
2023-05-19T07:02:40.756Z,0.94
2023-05-19T07:03:40.754Z,0.95
2023-05-19T07:04:40.611Z,0.93
2023-05-19T07:05:40.679Z,0.94
2023-05-19T07:06:40.630Z,0.93
2023-05-19T07:07:40.756Z,0.96
2023-05-19T07:08:40.727Z,0.96
2023-05-19T07:09:40.829Z,0.94
2023-05-19T07:10:40.844Z,0.92
2023-05-19T07:11:40.946Z,0.96
2023-05-19T07:12:40.950Z,0.96
2023-05-19T07:13:40.995Z,0.96
2023-05-19T07:14:40.994Z,0.95
2023-05-19T07:15:41.117Z,0.94
2023-05-19T07:16:41.230Z,0.94
2023-05-19T07:17:41.274Z,0.95
2023-05-19T07:18:41.306Z,0.94
2023-05-19T07:19:41.293Z,0.94
2023-05-19T07:20:41.344Z,0.94
2023-05-19T07:21:41.377Z,0.94
2023-05-19T07:22:41.471Z,0.95
2023-05-19T07:23:41.529Z,0.96
2023-05-19T07:24:41.535Z,0.93
2023-05-19T07:25:41.571Z,0.93
2023-05-19T07:26:41.641Z,0.93
2023-05-19T07:27:41.737Z,0.93
2023-05-19T07:28:41.874Z,0.94
2023-05-19T07:29:41.816Z,0.95
2023-05-19T07:30:41.855Z,0.94
2023-05-19T07:31:41.938Z,0.92
2023-05-19T07:32:42.001Z,0.93
2023-05-19T07:33:41.981Z,0.89
2023-05-19T07:34:42.011Z,0.92
2023-05-19T07:35:42.068Z,0.90
2023-05-19T07:36:42.154Z,0.91
2023-05-19T07:37:42.183Z,0.90
2023-05-19T07:38:42.294Z,0.91
2023-05-19T07:39:42.255Z,0.91
2023-05-19T07:40:42.290Z,0.89
2023-05-19T07:41:42.355Z,0.91
2023-05-19T07:42:42.377Z,0.88
2023-05-19T07:43:42.425Z,0.91
2023-05-19T07:44:42.499Z,0.89
2023-05-19T07:45:42.574Z,0.88
2023-05-19T07:46:42.566Z,0.88
2023-05-19T07:47:42.718Z,0.90
2023-05-19T07:48:42.739Z,0.86
2023-05-19T07:49:42.729Z,0.86
2023-05-19T07:50:42.835Z,0.87
2023-05-19T07:51:42.853Z,0.86
2023-05-19T07:52:42.926Z,0.86
2023-05-19T07:53:42.983Z,0.84
2023-05-19T07:54:43.023Z,0.84
2023-05-19T07:55:43.074Z,0.81
2023-05-19T07:56:43.122Z,0.82
2023-05-19T07:57:43.170Z,0.82
2023-05-19T07:58:43.202Z,0.83
2023-05-19T07:59:43.300Z,0.81
2023-05-19T08:00:43.387Z,0.80
2023-05-19T08:01:43.354Z,0.82
2023-05-19T08:02:43.465Z,0.79
2023-05-19T08:03:43.598Z,0.83
2023-05-19T08:04:43.639Z,0.82
2023-05-19T08:05:43.554Z,0.83
2023-05-19T08:06:43.744Z,0.83
2023-05-19T08:07:43.715Z,0.81
2023-05-19T08:08:43.710Z,0.84
2023-05-19T08:09:43.828Z,0.83
2023-05-19T08:10:43.905Z,0.82
2023-05-19T08:11:43.931Z,0.81
2023-05-19T08:12:43.984Z,0.82
2023-05-19T08:13:44.063Z,0.82
2023-05-19T08:14:44.065Z,0.82
2023-05-19T08:15:44.160Z,0.83
2023-05-19T08:16:44.230Z,0.81
2023-05-19T08:17:44.250Z,0.84
2023-05-19T08:18:44.421Z,0.83
2023-05-19T08:19:44.381Z,0.82
2023-05-19T08:20:44.419Z,0.84
2023-05-19T08:21:44.500Z,0.82
2023-05-19T08:22:44.587Z,0.82
2023-05-19T08:23:44.625Z,0.81
2023-05-19T08:24:44.656Z,0.82
2023-05-19T08:25:44.764Z,0.81
2023-05-19T08:26:44.954Z,0.82
2023-05-19T08:27:44.858Z,0.83
2023-05-19T08:28:44.925Z,0.80
2023-05-19T08:29:44.967Z,0.82
2023-05-19T08:30:44.984Z,0.83
2023-05-19T08:31:45.155Z,0.82
2023-05-19T08:32:45.205Z,0.82
2023-05-19T08:33:45.206Z,0.83
2023-05-19T08:34:45.256Z,0.81
2023-05-19T08:35:45.322Z,0.82
2023-05-19T08:36:45.384Z,0.83
2023-05-19T08:37:45.449Z,0.82
2023-05-19T08:38:45.529Z,0.80
2023-05-19T08:39:45.531Z,0.80
2023-05-19T08:40:45.572Z,0.82
2023-05-19T08:41:45.654Z,0.81
2023-05-19T08:42:45.784Z,0.80
2023-05-19T08:43:45.741Z,0.81
2023-05-19T08:44:45.856Z,0.82
2023-05-19T08:45:45.842Z,0.82
2023-05-19T08:46:45.997Z,0.80
2023-05-19T08:47:46.010Z,0.80
2023-05-19T08:48:46.017Z,0.80
2023-05-19T08:49:46.070Z,0.82
2023-05-19T08:50:46.152Z,0.83
2023-05-19T08:51:46.210Z,0.81
2023-05-19T08:52:50.163Z,0.83
2023-05-19T08:53:46.261Z,0.83
2023-05-19T08:54:46.257Z,0.83
2023-05-19T08:55:46.230Z,0.82
2023-05-19T08:56:46.255Z,0.81
2023-05-19T08:57:46.197Z,0.81
2023-05-19T08:58:46.207Z,0.82
2023-05-19T08:59:46.218Z,0.81
2023-05-19T09:00:46.287Z,0.83
2023-05-19T09:01:46.200Z,0.79
2023-05-19T09:02:55.158Z,0.81
2023-05-19T09:03:47.330Z,0.81
2023-05-19T09:04:46.326Z,0.81
2023-05-19T09:05:46.222Z,0.81
2023-05-19T09:06:46.157Z,0.81
2023-05-19T09:07:46.168Z,0.80
2023-05-19T09:08:46.148Z,0.81
2023-05-19T09:09:46.118Z,0.82
2023-05-19T09:10:46.141Z,0.80
2023-05-19T09:11:46.157Z,0.80
2023-05-19T09:12:46.147Z,0.80
2023-05-19T09:13:46.207Z,0.81
2023-05-19T09:14:46.183Z,0.80
2023-05-19T09:15:46.231Z,0.81
2023-05-19T09:16:46.337Z,0.81
2023-05-19T09:17:46.394Z,0.78
2023-05-19T09:18:46.440Z,0.79
2023-05-19T09:19:46.451Z,0.78
2023-05-19T09:20:46.533Z,0.78
2023-05-19T09:21:46.540Z,0.80
2023-05-19T09:22:46.629Z,0.78
2023-05-19T09:23:46.683Z,0.77
2023-05-19T09:24:46.756Z,0.78
2023-05-19T09:25:46.731Z,0.77
2023-05-19T09:26:46.808Z,0.76
2023-05-19T09:27:46.855Z,0.77
2023-05-19T09:28:46.925Z,0.77
2023-05-19T09:29:47.001Z,0.77
2023-05-19T09:30:46.998Z,0.76
2023-05-19T09:31:47.741Z,0.76
2023-05-19T09:32:47.170Z,0.75
2023-05-19T09:33:47.157Z,0.75
2023-05-19T09:34:47.237Z,0.75
2023-05-19T09:35:47.274Z,0.75
2023-05-19T09:36:47.337Z,0.74
2023-05-19T09:37:47.322Z,0.74
2023-05-19T09:38:47.401Z,0.75
2023-05-19T09:39:47.479Z,0.74
2023-05-19T09:40:47.477Z,0.74
2023-05-19T09:41:47.517Z,0.74
2023-05-19T09:42:47.569Z,0.71
2023-05-19T09:43:47.634Z,0.74
2023-05-19T09:44:47.751Z,0.75
2023-05-19T09:45:47.770Z,0.72
2023-05-19T09:46:47.772Z,0.73
2023-05-19T09:47:47.869Z,0.73
2023-05-19T09:48:47.937Z,0.71
2023-05-19T09:49:47.900Z,0.70
2023-05-19T09:50:47.942Z,0.72
2023-05-19T09:51:47.997Z,0.70
2023-05-19T09:52:48.073Z,0.69
2023-05-19T09:53:48.103Z,0.71
2023-05-19T09:54:48.146Z,0.69
2023-05-19T09:55:48.196Z,0.71
2023-05-19T09:56:48.226Z,0.70
2023-05-19T09:57:48.285Z,0.69
2023-05-19T09:58:48.350Z,0.70
2023-05-19T09:59:48.356Z,0.68
2023-05-19T10:00:48.432Z,0.69
2023-05-19T10:01:48.626Z,0.67
2023-05-19T10:02:48.704Z,0.68
2023-05-19T10:03:48.562Z,0.65
2023-05-19T10:04:48.682Z,0.67
2023-05-19T10:05:48.697Z,0.67
2023-05-19T10:06:48.715Z,0.68
2023-05-19T10:07:48.895Z,0.67
2023-05-19T10:08:48.907Z,0.65
2023-05-19T10:09:48.838Z,0.65
2023-05-19T10:10:48.890Z,0.66
2023-05-19T10:11:48.927Z,0.64
2023-05-19T10:12:48.988Z,0.65
2023-05-19T10:13:49.129Z,0.64
2023-05-19T10:14:49.168Z,0.64
2023-05-19T10:15:57.943Z,0.64
2023-05-19T10:16:50.229Z,0.64
2023-05-19T10:17:49.137Z,0.64
2023-05-19T10:18:49.139Z,0.64
2023-05-19T10:19:49.071Z,0.64
2023-05-19T10:20:49.066Z,0.63
2023-05-19T10:21:49.071Z,0.64
2023-05-19T10:22:49.054Z,0.63
2023-05-19T10:23:49.057Z,0.61
2023-05-19T10:24:49.043Z,0.60
2023-05-19T10:25:49.004Z,0.61
2023-05-19T10:26:49.015Z,0.59
2023-05-19T10:27:49.087Z,0.60
2023-05-19T10:28:49.005Z,0.60
2023-05-19T10:29:49.083Z,0.60
2023-05-19T10:30:49.231Z,0.60
2023-05-19T10:31:49.264Z,0.62
2023-05-19T10:32:49.202Z,0.61
2023-05-19T10:33:49.266Z,0.60
2023-05-19T10:34:49.260Z,0.61
2023-05-19T10:35:49.316Z,0.62
2023-05-19T10:36:49.319Z,0.60
2023-05-19T10:37:49.389Z,0.62
2023-05-19T10:38:49.437Z,0.61
2023-05-19T10:39:49.500Z,0.62
2023-05-19T10:40:49.524Z,0.61
2023-05-19T10:41:49.544Z,0.62
2023-05-19T10:42:49.568Z,0.60
2023-05-19T10:43:49.686Z,0.61
2023-05-19T10:44:50.624Z,0.62
2023-05-19T10:45:49.747Z,0.62
2023-05-19T10:46:49.851Z,0.60
2023-05-19T10:47:49.855Z,0.60
2023-05-19T10:48:49.871Z,0.62
2023-05-19T10:49:49.878Z,0.60
2023-05-19T10:50:49.927Z,0.61
2023-05-19T10:51:49.946Z,0.62
2023-05-19T10:52:50.003Z,0.62
2023-05-19T10:53:50.031Z,0.61
2023-05-19T10:54:50.061Z,0.61
2023-05-19T10:55:50.129Z,0.61
2023-05-19T10:56:50.133Z,0.61
2023-05-19T10:57:50.162Z,0.61
2023-05-19T10:58:50.198Z,0.60
2023-05-19T10:59:50.261Z,0.60
2023-05-19T11:00:50.320Z,0.59
2023-05-19T11:01:50.341Z,0.61
2023-05-19T11:02:50.338Z,0.60
2023-05-19T11:03:50.464Z,0.61
2023-05-19T11:04:51.601Z,0.61
2023-05-19T11:05:50.488Z,0.60
2023-05-19T11:06:50.536Z,0.60
2023-05-19T11:07:50.529Z,0.60
2023-05-19T11:08:50.562Z,0.62
2023-05-19T11:09:50.659Z,0.62
2023-05-19T11:10:50.642Z,0.62
2023-05-19T11:11:51.281Z,0.63
2023-05-19T11:12:52.127Z,0.63
2023-05-19T11:13:50.702Z,0.62
2023-05-19T11:14:50.744Z,0.63
2023-05-19T11:15:50.783Z,0.61
2023-05-19T11:16:50.853Z,0.63
2023-05-19T11:17:50.868Z,0.62
2023-05-19T11:18:50.906Z,0.62
2023-05-19T11:19:50.909Z,0.63
2023-05-19T11:20:50.931Z,0.63
2023-05-19T11:21:50.975Z,0.63
2023-05-19T11:22:50.971Z,0.64
2023-05-19T11:23:51.039Z,0.65
2023-05-19T11:24:50.995Z,0.66
2023-05-19T11:25:51.076Z,0.67
2023-05-19T11:26:51.042Z,0.66
2023-05-19T11:27:51.109Z,0.67
2023-05-19T11:28:51.114Z,0.64
2023-05-19T11:29:51.154Z,0.64
2023-05-19T11:30:51.219Z,0.67
2023-05-19T11:31:51.243Z,0.66
2023-05-19T11:32:51.233Z,0.69
2023-05-19T11:33:51.250Z,0.68
2023-05-19T11:34:51.256Z,0.67
2023-05-19T11:35:51.338Z,0.67
2023-05-19T11:36:51.326Z,0.67
2023-05-19T11:37:51.346Z,0.66
2023-05-19T11:38:51.408Z,0.65
2023-05-19T11:39:51.404Z,0.67
2023-05-19T11:40:51.461Z,0.67
2023-05-19T11:41:51.440Z,0.67
2023-05-19T11:42:51.467Z,0.67
2023-05-19T11:43:51.532Z,0.68
2023-05-19T11:44:51.530Z,0.68
2023-05-19T11:45:51.772Z,0.68
2023-05-19T11:46:51.693Z,0.71
2023-05-19T11:48:02.113Z,0.70
2023-05-19T11:48:52.612Z,0.70
2023-05-19T11:49:51.592Z,0.70
2023-05-19T11:50:51.576Z,0.70
2023-05-19T11:51:51.582Z,0.71
2023-05-19T11:52:51.535Z,0.72
2023-05-19T11:53:51.565Z,0.72
2023-05-19T11:54:51.565Z,0.72
2023-05-19T11:55:52.019Z,0.72
2023-05-19T11:56:51.522Z,0.70
2023-05-19T11:58:02.857Z,0.70
2023-05-19T11:58:52.505Z,0.70
2023-05-19T11:59:51.481Z,0.71
2023-05-19T12:00:51.490Z,0.71
2023-05-19T12:01:51.497Z,0.71
2023-05-19T12:02:51.618Z,0.72
2023-05-19T12:03:51.637Z,0.73
2023-05-19T12:04:51.515Z,0.73
2023-05-19T12:05:51.680Z,0.73
2023-05-19T12:06:51.472Z,0.72
2023-05-19T12:07:51.432Z,0.73
2023-05-19T12:08:51.449Z,0.74
2023-05-19T12:09:51.456Z,0.73
2023-05-19T12:10:51.438Z,0.72
2023-05-19T12:11:51.437Z,0.72
2023-05-19T12:12:51.421Z,0.72
2023-05-19T12:13:51.423Z,0.72
2023-05-19T12:14:51.383Z,0.73
2023-05-19T12:15:51.424Z,0.71
2023-05-19T12:16:51.469Z,0.76
2023-05-19T12:17:51.467Z,0.72
2023-05-19T12:18:51.492Z,0.73
2023-05-19T12:19:51.461Z,0.73
2023-05-19T12:20:51.490Z,0.75
2023-05-19T12:21:51.521Z,0.73
2023-05-19T12:22:51.537Z,0.73
2023-05-19T12:23:51.648Z,0.73
2023-05-19T12:24:51.590Z,0.74
2023-05-19T12:25:51.605Z,0.74
2023-05-19T12:26:51.693Z,0.75
2023-05-19T12:27:51.645Z,0.74
2023-05-19T12:28:51.673Z,0.75
2023-05-19T12:29:51.699Z,0.74
2023-05-19T12:30:51.712Z,0.73
2023-05-19T12:31:51.789Z,0.75
2023-05-19T12:32:51.855Z,0.73
2023-05-19T12:33:51.921Z,0.75
2023-05-19T12:34:51.856Z,0.75
2023-05-19T12:35:51.895Z,0.75
2023-05-19T12:36:51.972Z,0.74
2023-05-19T12:37:51.920Z,0.75
2023-05-19T12:38:51.961Z,0.74
2023-05-19T12:39:51.967Z,0.74
2023-05-19T12:40:51.972Z,0.74
2023-05-19T12:41:52.000Z,0.75
2023-05-19T12:42:52.076Z,0.75
2023-05-19T12:43:52.078Z,0.76
2023-05-19T12:44:52.103Z,0.75
2023-05-19T12:45:52.209Z,0.74
2023-05-19T12:46:52.132Z,0.74
2023-05-19T12:47:52.194Z,0.74
2023-05-19T12:48:52.171Z,0.75
2023-05-19T12:49:52.178Z,0.76
2023-05-19T12:50:52.206Z,0.74
2023-05-19T12:51:52.261Z,0.74
2023-05-19T12:52:52.276Z,0.73
2023-05-19T12:53:52.273Z,0.76
2023-05-19T12:54:52.353Z,0.74
2023-05-19T12:55:52.324Z,0.76
2023-05-19T12:56:52.387Z,0.76
2023-05-19T12:57:52.402Z,0.74
2023-05-19T12:58:52.435Z,0.76
2023-05-19T12:59:52.443Z,0.76
2023-05-19T13:00:52.554Z,0.75
2023-05-19T13:01:52.512Z,0.76
2023-05-19T13:02:52.712Z,0.76
2023-05-19T13:03:52.772Z,0.76
2023-05-19T13:04:52.528Z,0.77
2023-05-19T13:05:52.605Z,0.78
2023-05-19T13:06:52.605Z,0.76
2023-05-19T13:07:52.615Z,0.78
2023-05-19T13:08:52.626Z,0.76
2023-05-19T13:09:52.686Z,0.76
2023-05-19T13:10:52.708Z,0.76
2023-05-19T13:11:52.732Z,0.75
2023-05-19T13:12:52.747Z,0.74
2023-05-19T13:13:52.762Z,0.75
2023-05-19T13:14:55.425Z,0.75
2023-05-19T13:15:52.778Z,0.76
2023-05-19T13:16:52.828Z,0.77
2023-05-19T13:17:52.777Z,0.75
2023-05-19T13:18:53.011Z,0.75